This is the latest recevied weather packets stored in our database for station/object EA5LU-10. If no packets are shown the sender has not sent any weather packets the latest 10 day(s).
| Time | Temp. | Humidity | Pressure | Rain* | Wind** | Luminosity | Snow |
|---|---|---|---|---|---|---|---|
| 1777724486 | 23.89° C | 64% | 1010 hPa | - | - | - | - |
| 1777723585 | 23.89° C | 64% | 1010 hPa | - | - | - | - |
| 1777722685 | 23.89° C | 63% | 1010.4 hPa | - | - | - | - |
| 1777721784 | 24.44° C | 56% | 1010.4 hPa | - | - | - | - |
| 1777720883 | 24.44° C | 56% | 1010.5 hPa | - | - | - | - |
| 1777719982 | 25.56° C | 54% | 1010.6 hPa | - | - | - | - |
| 1777719081 | 25.56° C | 55% | 1010.7 hPa | - | - | - | - |
| 1777718181 | 25° C | 56% | 1010.7 hPa | - | - | - | - |
| 1777717280 | 25.56° C | 56% | 1010.7 hPa | - | - | - | - |
| 1777716379 | 24.44° C | 58% | 1010.9 hPa | - | - | - | - |
| 1777715478 | 24.44° C | 59% | 1011.1 hPa | - | - | - | - |
| 1777714577 | 23.33° C | 63% | 1011.3 hPa | - | - | - | - |
| 1777713676 | 22.78° C | 64% | 1011.4 hPa | - | - | - | - |
| 1777712775 | 23.33° C | 63% | 1011.3 hPa | - | - | - | - |
| 1777711874 | 22.22° C | 65% | 1011.1 hPa | - | - | - | - |
| 1777710974 | 23.33° C | 62% | 1011.2 hPa | - | - | - | - |
| 1777710073 | 23.89° C | 61% | 1011.1 hPa | - | - | - | - |
| 1777709172 | 23.33° C | 63% | 1011.4 hPa | - | - | - | - |
| 1777708271 | 22.78° C | 65% | 1011.2 hPa | - | - | - | - |
| 1777707370 | 22.22° C | 67% | 1011.2 hPa | - | - | - | - |
| 1777706469 | 22.22° C | 67% | 1011.2 hPa | - | - | - | - |
| 1777705569 | 21.11° C | 70% | 1011.4 hPa | - | - | - | - |
| 1777704668 | 20.56° C | 72% | 1011.5 hPa | - | - | - | - |
| 1777703767 | 20.56° C | 72% | 1011.4 hPa | - | - | - | - |
| 1777702866 | 20.56° C | 73% | 1011.4 hPa | - | - | - | - |
* Rain since midnight (hover to see other rain measurements)
** Current wind speed in m/s (hover to see current wind gust speed)